Time;durP1;ratioP1;P1;durP2;ratioP2;P2;SDS_P1;SDS_P2;PMS_P1;PMS_P2;Temp;Humidity;BMP_temperature;BMP_pressure;BME280_temperature;BME280_humidity;BME280_pressure;Samples;Min_cycle;Max_cycle;Signal;HPM_P1;HPM_P2
2021/05/20 07:30:31;;;;;;;17.70;1.92;;;13.80;99.90;;;;;;6108642;23;20443;31
2021/05/20 07:32:58;;;;;;;11.90;1.58;;;13.90;99.90;;;;;;6148328;23;20018;-94
2021/05/20 07:35:26;;;;;;;10.88;1.80;;;14.00;99.90;;;;;;6100583;23;20019;-94
2021/05/20 07:37:53;;;;;;;8.05;1.35;;;14.00;99.90;;;;;;6123517;23;20473;-94
2021/05/20 07:40:22;;;;;;;9.98;1.20;;;14.00;99.90;;;;;;6122738;23;20018;-93
2021/05/20 07:42:49;;;;;;;9.57;1.30;;;14.00;99.90;;;;;;6123839;23;20394;-91
2021/05/20 07:45:17;;;;;;;8.27;1.20;;;14.00;99.90;;;;;;6122036;23;20022;-92
2021/05/20 07:47:47;;;;;;;10.30;1.77;;;14.00;99.90;;;;;;6147337;23;20022;-93
2021/05/20 07:50:16;;;;;;;9.07;1.77;;;14.10;99.90;;;;;;6121451;23;20032;-93
2021/05/20 07:52:44;;;;;;;10.50;1.58;;;14.10;99.90;;;;;;6122213;23;20066;-93
2021/05/20 07:55:12;;;;;;;7.80;1.60;;;14.10;99.90;;;;;;6122088;23;20026;-93
2021/05/20 07:57:40;;;;;;;11.82;1.98;;;14.20;99.90;;;;;;6123478;23;20020;-89
2021/05/20 08:00:09;;;;;;;11.98;1.60;;;14.20;99.90;;;;;;6123057;23;20193;-93
2021/05/20 08:02:57;;;;;;;9.27;1.30;;;14.20;99.90;;;;;;6124511;23;20050;-90
2021/05/20 08:05:30;;;;;;;9.40;1.67;;;14.20;99.90;;;;;;6127607;23;20086;-94
2021/05/20 08:10:54;;;;;;;12.77;2.00;;;14.20;99.90;;;;;;6072490;23;20019;-92
2021/05/20 08:13:22;;;;;;;9.30;1.73;;;14.10;99.90;;;;;;6046387;23;20031;-91
2021/05/20 08:15:51;;;;;;;10.90;1.67;;;14.20;99.90;;;;;;6071485;23;20438;-94
2021/05/20 08:18:18;;;;;;;10.80;1.50;;;14.30;99.90;;;;;;6072143;23;20031;-89
2021/05/20 08:20:46;;;;;;;9.63;1.65;;;14.30;99.90;;;;;;6073638;23;20055;-94
2021/05/20 08:23:13;;;;;;;9.82;1.60;;;14.40;99.90;;;;;;6073116;23;20023;-93
2021/05/20 08:25:40;;;;;;;8.13;1.52;;;14.40;99.90;;;;;;6074031;23;20061;-93
2021/05/20 08:28:07;;;;;;;9.55;1.70;;;14.50;99.90;;;;;;6071897;23;20038;-94
2021/05/20 08:30:35;;;;;;;14.23;1.80;;;14.60;99.90;;;;;;6071730;23;20019;-94
2021/05/20 08:33:02;;;;;;;10.32;1.58;;;14.70;99.90;;;;;;6051609;23;20075;-95
2021/05/20 08:35:32;;;;;;;11.93;1.88;;;14.70;99.90;;;;;;6074834;23;20029;-93
2021/05/20 08:37:59;;;;;;;7.55;2.00;;;14.70;99.90;;;;;;6074804;23;20046;-91
2021/05/20 08:40:27;;;;;;;7.70;1.60;;;14.60;99.90;;;;;;6070695;23;20382;-93
2021/05/20 08:42:54;;;;;;;9.77;1.70;;;14.60;99.90;;;;;;6073596;23;20018;-95
2021/05/20 08:45:27;;;;;;;10.73;1.75;;;14.50;99.90;;;;;;6072538;23;20062;-90
2021/05/20 08:47:55;;;;;;;8.23;1.80;;;14.50;99.90;;;;;;6089524;23;20025;-91
2021/05/20 08:50:26;;;;;;;;;;;14.50;99.90;;;;;;6101149;23;20026;-92
2021/05/20 08:52:53;;;;;;;11.95;1.77;;;14.50;99.90;;;;;;6114178;23;19917;-91
2021/05/20 08:55:27;;;;;;;10.77;1.85;;;14.50;99.90;;;;;;6134271;23;20021;-93
2021/05/20 08:57:55;;;;;;;14.35;2.00;;;14.50;99.90;;;;;;6135792;23;20028;-92
2021/05/20 09:00:24;;;;;;;9.90;1.85;;;14.50;99.90;;;;;;6130135;23;20021;-92
2021/05/20 09:02:51;;;;;;;13.52;1.92;;;14.50;99.90;;;;;;6136378;23;20468;-94
2021/05/20 09:05:23;;;;;;;13.93;1.88;;;14.50;99.90;;;;;;6132769;23;20022;-91
2021/05/20 09:07:53;;;;;;;11.93;2.05;;;14.60;99.90;;;;;;6131130;23;20014;-91
2021/05/20 09:10:28;;;;;;;9.90;2.00;;;14.60;99.90;;;;;;6131935;23;20022;-94
2021/05/20 09:13:15;;;;;;;11.70;1.88;;;14.60;99.90;;;;;;6132572;23;20022;-93
2021/05/20 09:15:44;;;;;;;12.07;2.20;;;14.60;99.90;;;;;;6094591;23;20022;-94
2021/05/20 09:18:16;;;;;;;12.13;1.98;;;14.70;99.90;;;;;;6122300;23;20022;-96
2021/05/20 09:20:45;;;;;;;9.23;1.60;;;14.80;99.90;;;;;;6132096;23;20022;-92
2021/05/20 09:23:15;;;;;;;12.55;2.25;;;14.90;99.90;;;;;;6133960;23;20014;-91
2021/05/20 09:25:45;;;;;;;14.00;1.80;;;14.90;99.90;;;;;;6130581;23;20461;-93
2021/05/20 09:28:13;;;;;;;12.00;2.13;;;14.90;99.90;;;;;;6128571;23;20018;-90
2021/05/20 09:30:45;;;;;;;11.38;1.67;;;14.90;99.90;;;;;;6127761;23;20033;-91
2021/05/20 09:33:14;;;;;;;12.32;1.90;;;14.80;99.90;;;;;;6127905;23;20472;-91
2021/05/20 09:35:42;;;;;;;10.82;1.83;;;14.80;99.90;;;;;;6128853;23;20357;-91
2021/05/20 09:38:17;;;;;;;9.35;1.48;;;14.80;99.90;;;;;;6129016;23;20026;-91
2021/05/20 09:40:52;;;;;;;14.68;2.30;;;14.80;99.90;;;;;;6128417;23;20022;-93
2021/05/20 09:43:25;;;;;;;12.00;1.63;;;14.70;99.90;;;;;;6129543;23;20014;-93
2021/05/20 09:45:54;;;;;;;8.65;2.05;;;14.80;99.90;;;;;;6128656;23;20064;-91
2021/05/20 09:48:23;;;;;;;12.82;1.60;;;14.80;99.90;;;;;;6128270;23;20030;-95
2021/05/20 09:50:52;;;;;;;12.73;2.20;;;14.80;99.90;;;;;;6128133;23;20010;-90
2021/05/20 09:53:23;;;;;;;9.27;1.98;;;14.90;99.90;;;;;;6127594;23;20475;-92
2021/05/20 09:55:53;;;;;;;10.43;2.10;;;14.90;99.90;;;;;;6128716;23;20018;-94
2021/05/20 09:58:28;;;;;;;15.02;2.50;;;14.80;99.90;;;;;;6127723;23;20030;-93
2021/05/20 10:00:57;;;;;;;14.35;2.13;;;14.90;99.90;;;;;;6130621;23;20086;-92
2021/05/20 10:03:26;;;;;;;13.23;2.13;;;15.00;99.90;;;;;;6127812;23;20029;-92
2021/05/20 10:06:00;;;;;;;11.20;2.15;;;15.00;99.90;;;;;;6128846;23;20022;-92
2021/05/20 10:08:33;;;;;;;17.00;2.90;;;15.10;99.90;;;;;;6129774;23;20021;-93
2021/05/20 10:11:04;;;;;;;7.78;1.80;;;15.20;99.90;;;;;;6130571;23;20018;-93
2021/05/20 10:13:31;;;;;;;13.60;2.33;;;15.20;99.90;;;;;;6126633;23;20382;-93
2021/05/20 10:15:58;;;;;;;13.70;2.55;;;15.30;99.90;;;;;;6128307;23;20022;-93
2021/05/20 10:18:28;;;;;;;9.82;1.77;;;15.30;99.90;;;;;;6127342;23;20026;-92
2021/05/20 10:21:03;;;;;;;12.18;2.30;;;15.20;99.90;;;;;;6130798;23;20348;-96
2021/05/20 10:23:31;;;;;;;14.52;2.63;;;15.20;99.90;;;;;;6128437;23;20045;-93
2021/05/20 10:25:59;;;;;;;13.50;2.22;;;15.20;99.90;;;;;;6129190;23;20089;-91
2021/05/20 10:28:26;;;;;;;11.38;2.15;;;15.10;99.90;;;;;;6126714;23;20018;-92
2021/05/20 10:30:56;;;;;;;9.23;1.52;;;15.00;99.90;;;;;;6127163;23;20022;-94
2021/05/20 10:33:29;;;;;;;17.95;2.22;;;14.90;99.90;;;;;;6127279;23;20028;-93
2021/05/20 10:35:57;;;;;;;10.15;1.88;;;14.80;99.90;;;;;;6128404;23;20018;-92
2021/05/20 10:38:24;;;;;;;10.93;1.83;;;14.60;99.90;;;;;;6128052;23;20032;-92
2021/05/20 10:41:10;;;;;;;10.00;1.80;;;14.50;99.90;;;;;;6132627;23;20025;-93
2021/05/20 10:43:39;;;;;;;12.95;2.53;;;14.50;99.90;;;;;;6129480;23;20025;-91
2021/05/20 10:46:08;;;;;;;10.85;2.03;;;14.40;99.90;;;;;;6128109;23;20017;-94
2021/05/20 10:48:37;;;;;;;12.65;2.30;;;14.30;99.90;;;;;;6127246;23;20069;-93
2021/05/20 10:51:12;;;;;;;12.27;2.10;;;14.30;99.90;;;;;;6126711;23;20010;-94
2021/05/20 10:53:51;;;;;;;9.73;2.47;;;14.30;99.90;;;;;;6128377;23;20010;-92
2021/05/20 10:56:18;;;;;;;12.57;2.28;;;14.30;99.90;;;;;;6127950;23;20034;-93
2021/05/20 10:58:47;;;;;;;11.40;2.53;;;14.30;99.90;;;;;;6127206;23;20445;-94
2021/05/20 11:01:24;;;;;;;11.98;2.15;;;14.30;99.90;;;;;;6126019;23;20069;-93
2021/05/20 11:03:55;;;;;;;15.10;2.65;;;14.30;99.90;;;;;;6132407;23;20442;-93
2021/05/20 11:06:35;;;;;;;10.75;2.30;;;14.30;99.90;;;;;;6123964;23;20044;-93
2021/05/20 11:09:04;;;;;;;15.07;2.78;;;14.40;99.90;;;;;;6125906;23;20010;-94
2021/05/20 11:11:32;;;;;;;11.00;2.05;;;14.50;99.90;;;;;;6123370;23;20076;-92
2021/05/20 11:14:00;;;;;;;14.80;2.65;;;14.60;99.90;;;;;;6123508;23;20033;-93
2021/05/20 11:16:29;;;;;;;22.17;3.00;;;14.70;99.90;;;;;;6122778;23;20029;-91
2021/05/20 11:19:27;;;;;;;18.67;2.55;;;14.80;99.90;;;;;;6123704;23;20350;-94
2021/05/20 11:24:26;;;;;;;22.98;2.80;;;15.10;99.90;;;;;;6126911;23;20014;-93
2021/05/20 11:26:56;;;;;;;17.60;2.63;;;15.10;99.90;;;;;;6127143;23;20072;-94
2021/05/20 11:29:27;;;;;;;13.80;2.33;;;15.10;99.90;;;;;;6126876;23;20026;-94
2021/05/20 11:32:00;;;;;;;12.68;2.20;;;15.20;99.90;;;;;;6126957;23;20022;-91
2021/05/20 11:36:57;;;;;;;9.02;1.98;;;15.00;99.90;;;;;;6128256;23;20021;-94
2021/05/20 11:39:24;;;;;;;17.00;2.80;;;15.00;99.90;;;;;;6126712;23;20030;-94
2021/05/20 11:41:53;;;;;;;11.02;2.40;;;15.00;99.90;;;;;;6125564;23;20018;-93
2021/05/20 11:44:22;;;;;;;14.95;3.08;;;14.90;99.90;;;;;;6126899;23;20350;-92
2021/05/20 11:46:55;;;;;;;14.85;2.50;;;14.80;99.90;;;;;;6129317;23;20021;-92
2021/05/20 11:49:22;;;;;;;12.73;2.75;;;14.90;99.90;;;;;;6127142;23;20026;-94
2021/05/20 11:51:53;;;;;;;12.95;3.13;;;14.90;99.90;;;;;;6126391;23;20010;-91
2021/05/20 11:54:23;;;;;;;14.85;2.30;;;14.90;99.90;;;;;;6126583;23;20026;-93
2021/05/20 11:56:52;;;;;;;17.88;2.75;;;14.80;99.90;;;;;;6129567;23;20377;-90
2021/05/20 11:59:23;;;;;;;16.10;3.03;;;14.80;99.90;;;;;;6129497;23;20018;-92
2021/05/20 12:01:50;;;;;;;12.05;2.45;;;14.80;99.90;;;;;;6127481;23;20022;-91
2021/05/20 12:04:18;;;;;;;9.45;2.65;;;14.70;99.90;;;;;;6127822;23;20434;-92
2021/05/20 12:06:50;;;;;;;10.83;2.67;;;14.70;99.90;;;;;;6128368;23;20089;-91
2021/05/20 12:09:17;;;;;;;13.35;2.83;;;14.70;99.90;;;;;;6128397;23;20338;-90
2021/05/20 12:11:45;;;;;;;12.00;2.80;;;14.60;99.90;;;;;;6128288;23;20030;-91
2021/05/20 12:14:44;;;;;;;14.52;2.50;;;14.70;99.90;;;;;;6127241;23;20080;-92
2021/05/20 12:17:19;;;;;;;16.40;2.80;;;14.70;99.90;;;;;;6096229;23;20070;-94
2021/05/20 12:19:50;;;;;;;12.18;2.63;;;14.70;99.90;;;;;;6096410;23;20022;-92
2021/05/20 12:22:18;;;;;;;12.32;2.97;;;14.60;99.90;;;;;;6096912;23;20023;-90
2021/05/20 12:24:49;;;;;;;14.02;2.53;;;14.60;99.90;;;;;;6098388;23;20089;-94
2021/05/20 12:27:23;;;;;;;12.35;2.58;;;14.60;99.90;;;;;;6097899;23;20018;-92
2021/05/20 12:29:55;;;;;;;12.15;2.65;;;14.50;99.90;;;;;;6097396;23;20011;-94
2021/05/20 12:32:26;;;;;;;9.43;2.13;;;14.50;99.90;;;;;;6095995;23;20022;-93
2021/05/20 12:35:20;;;;;;;15.63;2.78;;;14.40;99.90;;;;;;6097532;23;20022;-92
2021/05/20 12:37:59;;;;;;;12.25;2.80;;;14.30;99.90;;;;;;6097124;23;20026;-94
2021/05/20 12:40:34;;;;;;;13.60;2.55;;;14.30;99.90;;;;;;6095898;23;20059;-92
2021/05/20 12:43:08;;;;;;;18.23;3.58;;;14.20;99.90;;;;;;6097795;23;20025;-93
2021/05/20 12:45:40;;;;;;;20.02;3.72;;;14.10;99.90;;;;;;6096553;23;20101;-94
2021/05/20 12:48:29;;;;;;;19.95;3.85;;;14.10;99.90;;;;;;6097551;23;20029;-93
2021/05/20 12:51:02;;;;;;;18.90;4.55;;;14.10;99.90;;;;;;6097729;23;20098;-93
2021/05/20 12:53:29;;;;;;;30.17;4.60;;;14.10;99.90;;;;;;6120104;23;20022;-94
2021/05/20 12:55:59;;;;;;;31.52;5.35;;;14.10;99.90;;;;;;6127101;23;20022;-93
2021/05/20 12:58:50;;;;;;;36.10;5.65;;;14.20;99.90;;;;;;6127243;23;20442;-91
2021/05/20 13:01:18;;;;;;;28.02;5.47;;;14.30;99.90;;;;;;6127068;23;20046;-92
2021/05/20 13:03:51;;;;;;;40.72;6.43;;;14.40;99.90;;;;;;6126896;23;20052;-93
2021/05/20 13:06:30;;;;;;;36.15;6.38;;;14.50;99.90;;;;;;6126855;23;20025;-93
2021/05/20 13:09:12;;;;;;;32.08;5.75;;;14.70;99.90;;;;;;6128084;23;20069;-93
2021/05/20 13:11:45;;;;;;;41.60;6.40;;;14.90;99.90;;;;;;6128047;23;20018;-93
2021/05/20 13:22:34;;;;;;;31.08;5.70;;;14.70;99.90;;;;;;6131049;23;20014;-92
2021/05/20 13:25:19;;;;;;;35.65;5.47;;;14.80;99.90;;;;;;6127367;23;20020;-92
2021/05/20 13:27:48;;;;;;;36.35;6.70;;;14.80;99.90;;;;;;6127207;23;20089;-89
2021/05/20 13:30:22;;;;;;;29.77;5.53;;;14.90;99.90;;;;;;6126961;23;20025;-94
2021/05/20 13:32:53;;;;;;;40.97;6.78;;;15.00;99.90;;;;;;6128758;23;20018;-91
2021/05/20 13:35:20;;;;;;;43.35;6.40;;;15.20;99.90;;;;;;6128863;23;20461;-95
2021/05/20 13:37:48;;;;;;;37.72;6.97;;;15.40;99.90;;;;;;6130108;23;20010;-91
2021/05/20 13:40:28;;;;;;;41.88;6.85;;;15.60;99.90;;;;;;6129064;23;20072;-93
2021/05/20 13:42:57;;;;;;;35.95;6.78;;;15.70;99.90;;;;;;6130638;23;20018;-91
2021/05/20 13:45:25;;;;;;;;;;;15.90;99.90;;;;;;6131711;23;20053;-94
2021/05/20 13:47:53;;;;;;;33.30;6.22;;;15.90;99.90;;;;;;6135078;23;19917;-95
2021/05/20 13:50:21;;;;;;;42.67;6.47;;;16.10;99.90;;;;;;6119886;23;20025;-94
2021/05/20 13:52:51;;;;;;;46.88;7.15;;;16.20;99.90;;;;;;6156312;23;20072;-95
2021/05/20 13:55:21;;;;;;;37.08;7.15;;;16.30;99.90;;;;;;6134307;23;20026;-96
2021/05/20 13:57:51;;;;;;;43.67;7.10;;;16.40;99.90;;;;;;6131010;23;20025;-92
2021/05/20 14:00:25;;;;;;;43.95;6.97;;;16.50;99.90;;;;;;6131988;23;20081;-94
2021/05/20 14:02:54;;;;;;;40.90;6.90;;;16.50;99.90;;;;;;6129845;23;20013;-91
2021/05/20 14:05:21;;;;;;;41.08;8.68;;;16.50;99.90;;;;;;6129913;23;20026;-92
2021/05/20 14:07:49;;;;;;;42.58;7.78;;;16.50;99.90;;;;;;6130474;23;20018;-93
2021/05/20 14:10:16;;;;;;;45.70;7.82;;;16.50;99.90;;;;;;6129176;23;20017;-93
2021/05/20 14:12:45;;;;;;;38.35;8.13;;;16.40;99.90;;;;;;6132198;23;20017;-94
2021/05/20 14:15:18;;;;;;;46.03;8.57;;;16.50;99.90;;;;;;6131433;23;20022;-93
2021/05/20 14:17:46;;;;;;;40.63;7.35;;;16.60;99.90;;;;;;6131694;23;20022;-91
2021/05/20 14:20:16;;;;;;;44.08;8.85;;;16.60;99.90;;;;;;6129978;23;20018;-92
2021/05/20 14:22:43;;;;;;;40.80;7.60;;;16.70;99.90;;;;;;6130278;23;20018;-93
2021/05/20 14:25:10;;;;;;;46.97;8.85;;;16.60;99.90;;;;;;6128650;23;20013;-94
2021/05/20 14:27:37;;;;;;;45.22;8.05;;;16.50;99.90;;;;;;6131458;23;20018;-93
2021/05/20 14:30:05;;;;;;;50.22;8.00;;;16.50;99.90;;;;;;6129061;23;20016;-93
2021/05/20 14:32:32;;;;;;;41.75;7.82;;;16.40;99.90;;;;;;6128969;23;20014;-94
2021/05/20 14:34:59;;;;;;;42.08;8.07;;;16.30;99.90;;;;;;6136017;23;20021;-94
2021/05/20 14:37:26;;;;;;;41.13;8.00;;;16.30;99.90;;;;;;6129066;23;20025;-92
2021/05/20 14:39:55;;;;;;;46.30;9.02;;;16.20;99.90;;;;;;6131613;23;20393;-93
2021/05/20 14:42:22;;;;;;;40.33;7.38;;;16.20;99.90;;;;;;6127769;23;20025;-92
2021/05/20 14:44:50;;;;;;;45.20;9.23;;;16.20;99.90;;;;;;6129081;23;20018;-94
2021/05/20 14:47:17;;;;;;;42.30;7.75;;;16.10;99.90;;;;;;6130135;23;20048;-93
2021/05/20 14:49:49;;;;;;;50.47;8.70;;;16.00;99.90;;;;;;6128105;23;20029;-93
2021/05/20 14:52:37;;;;;;;52.63;8.07;;;15.90;99.90;;;;;;6127367;23;20018;-94
2021/05/20 14:55:36;;;;;;;45.03;8.05;;;15.80;99.90;;;;;;6127599;23;20018;-92
2021/05/20 15:08:18;;;;;;;48.80;8.00;;;16.00;99.90;;;;;;6128905;23;20029;-94
2021/05/20 15:10:59;;;;;;;47.45;8.43;;;16.00;99.90;;;;;;6128664;23;20077;-96
2021/05/20 15:13:40;;;;;;;46.13;8.93;;;16.00;99.90;;;;;;6126844;23;20014;-93
2021/05/20 15:16:14;;;;;;;40.17;8.27;;;16.00;99.90;;;;;;6126438;23;20519;-90
2021/05/20 15:18:41;;;;;;;42.78;7.70;;;16.00;99.90;;;;;;6127800;23;20017;-92
2021/05/20 15:21:09;;;;;;;42.85;7.43;;;16.10;99.90;;;;;;6127015;23;20077;-93
2021/05/20 15:23:37;;;;;;;46.23;8.37;;;16.20;99.90;;;;;;6128263;23;20017;-96
2021/05/20 15:26:05;;;;;;;47.08;7.80;;;16.40;99.90;;;;;;6126671;23;20042;-93
2021/05/20 15:28:32;;;;;;;39.43;7.13;;;16.40;99.90;;;;;;6127349;23;20029;-92
2021/05/20 15:31:00;;;;;;;46.92;9.00;;;16.40;99.90;;;;;;6127689;23;20033;-94
2021/05/20 15:33:27;;;;;;;39.75;7.53;;;16.40;99.90;;;;;;6125762;23;20441;-92
2021/05/20 15:36:04;;;;;;;43.33;7.28;;;16.40;99.90;;;;;;6128445;23;20022;-93
2021/05/20 15:38:32;;;;;;;37.65;7.30;;;16.40;99.90;;;;;;6126055;23;20025;-92
2021/05/20 15:41:00;;;;;;;42.07;8.30;;;16.30;99.90;;;;;;6126818;23;20022;-90
2021/05/20 15:43:28;;;;;;;34.28;7.32;;;16.30;99.90;;;;;;6126246;23;20093;-95
2021/05/20 15:46:00;;;;;;;34.35;7.03;;;16.30;99.90;;;;;;6126232;23;20026;-92
2021/05/20 15:51:30;;;;;;;36.00;7.28;;;16.30;99.90;;;;;;6037362;23;20027;-93
2021/05/20 15:53:57;;;;;;;36.60;6.82;;;16.20;99.90;;;;;;6016812;23;20020;-94
2021/05/20 15:56:24;;;;;;;36.13;6.65;;;16.10;99.90;;;;;;6011430;23;20571;-92
2021/05/20 15:58:51;;;;;;;34.25;7.15;;;16.00;99.90;;;;;;6010077;23;20027;-92
2021/05/20 16:01:18;;;;;;;42.78;7.28;;;16.00;99.90;;;;;;6008687;23;20035;-94
2021/05/20 16:03:47;;;;;;;34.22;6.65;;;16.10;99.90;;;;;;6008609;23;20019;-92
2021/05/20 16:06:14;;;;;;;39.08;6.93;;;16.10;99.90;;;;;;6012419;23;20023;-93
2021/05/20 16:08:54;;;;;;;39.90;7.47;;;16.20;99.90;;;;;;6015116;23;20034;-95
2021/05/20 16:16:20;;;;;;;50.22;8.20;;;16.20;99.90;;;;;;6035618;23;20059;-93
2021/05/20 16:18:53;;;;;;;32.08;6.10;;;16.00;99.90;;;;;;6014467;23;20046;-92
2021/05/20 16:21:25;;;;;;;38.78;7.82;;;16.00;99.90;;;;;;6035980;23;20031;-90
2021/05/20 16:37:17;;;;;;;47.63;7.70;;;16.20;99.90;;;;;;6126842;23;20349;-92
2021/05/20 16:39:44;;;;;;;40.35;7.93;;;16.30;99.90;;;;;;6122069;23;20018;-88
2021/05/20 16:42:12;;;;;;;33.80;7.30;;;16.50;99.90;;;;;;6123122;23;20466;-92
2021/05/20 16:44:40;;;;;;;47.58;7.22;;;16.60;99.90;;;;;;6125222;23;20073;-93
2021/05/20 16:47:18;;;;;;;42.25;7.80;;;16.60;99.90;;;;;;6123866;23;20103;-90
2021/05/20 16:49:45;;;;;;;36.05;7.88;;;16.60;99.90;;;;;;6121671;23;20022;-93
2021/05/20 16:52:14;;;;;;;38.25;6.70;;;16.50;99.90;;;;;;6122169;23;20055;-92
2021/05/20 16:54:56;;;;;;;44.78;7.15;;;16.50;99.90;;;;;;6122391;23;20365;-93
2021/05/20 16:59:50;;;;;;;51.70;8.00;;;16.30;99.90;;;;;;6124845;23;20014;-91
2021/05/20 17:02:17;;;;;;;39.20;6.30;;;16.20;99.90;;;;;;6123367;23;20069;-89
2021/05/20 17:04:44;;;;;;;44.97;7.57;;;16.00;99.90;;;;;;6123212;23;20022;-91
2021/05/20 17:07:14;;;;;;;42.78;7.72;;;15.90;99.90;;;;;;6123901;23;20018;-91
2021/05/20 17:09:41;;;;;;;46.70;7.63;;;15.90;99.90;;;;;;6125983;23;20489;-89
2021/05/20 17:12:09;;;;;;;42.05;7.18;;;15.90;99.90;;;;;;6126544;23;20393;-91
2021/05/20 17:14:36;;;;;;;45.15;7.53;;;15.90;99.90;;;;;;6121001;23;20018;-90
2021/05/20 17:17:03;;;;;;;32.47;6.43;;;15.90;99.90;;;;;;6121631;23;20513;-94
2021/05/20 17:19:30;;;;;;;42.47;7.30;;;16.00;99.90;;;;;;6093214;23;20026;-91
2021/05/20 17:21:57;;;;;;;43.85;7.50;;;15.90;99.90;;;;;;6119559;23;20014;-90
2021/05/20 17:24:24;;;;;;;36.70;7.35;;;15.90;99.90;;;;;;6120103;23;20529;-92
2021/05/20 17:26:51;;;;;;;35.25;6.47;;;15.90;99.90;;;;;;6109304;23;20026;-92
2021/05/20 17:29:18;;;;;;;37.10;6.72;;;16.00;99.90;;;;;;6119794;23;20033;-93
2021/05/20 17:31:48;;;;;;;32.33;6.45;;;16.00;99.90;;;;;;6119966;23;20093;-93
2021/05/20 17:34:15;;;;;;;35.10;7.03;;;16.10;99.90;;;;;;6119625;23;20115;-94
2021/05/20 17:36:42;;;;;;;36.60;6.97;;;16.10;99.90;;;;;;6120470;23;20026;-90
2021/05/20 17:39:09;;;;;;;36.50;6.97;;;16.10;99.90;;;;;;6107737;23;20072;-91
2021/05/20 17:41:36;;;;;;;29.20;6.50;;;16.10;99.90;;;;;;6122365;23;20101;-90
2021/05/20 17:44:03;;;;;;;39.28;6.45;;;16.20;99.90;;;;;;6121688;23;20021;-91
2021/05/20 17:46:30;;;;;;;28.63;5.90;;;16.20;99.90;;;;;;6121381;23;20026;-93
2021/05/20 17:48:57;;;;;;;25.67;5.32;;;16.20;99.90;;;;;;6124668;23;20022;-90
2021/05/20 17:51:24;;;;;;;34.05;6.78;;;16.30;99.90;;;;;;6122346;23;20622;-92
2021/05/20 17:53:51;;;;;;;33.83;5.75;;;16.20;99.90;;;;;;6120364;23;20010;-89
2021/05/20 17:56:18;;;;;;;34.35;6.20;;;16.30;99.90;;;;;;6119398;23;20034;-91
2021/05/20 17:58:45;;;;;;;33.38;5.82;;;16.40;99.90;;;;;;6120214;23;20025;-93
2021/05/20 18:01:13;;;;;;;37.35;6.93;;;16.30;99.90;;;;;;6116438;23;20036;-91
2021/05/20 18:03:40;;;;;;;33.25;6.18;;;16.20;99.90;;;;;;6118182;23;20026;-91
2021/05/20 18:06:07;;;;;;;32.55;6.10;;;16.00;99.90;;;;;;6120104;23;20084;-90
2021/05/20 18:08:46;;;;;;;32.40;5.60;;;15.90;99.90;;;;;;6123100;23;20466;-89
2021/05/20 18:16:28;;;;;;;35.80;7.93;;;15.30;99.90;;;;;;6123283;23;20389;-90
2021/05/20 18:23:57;;;;;;;35.40;7.03;;;14.90;99.90;;;;;;6123320;23;20014;-91
2021/05/20 18:26:24;;;;;;;35.03;6.65;;;14.80;99.90;;;;;;6125012;23;20018;-90
2021/05/20 18:28:51;;;;;;;36.50;6.30;;;14.80;99.90;;;;;;6123896;23;20037;-92
2021/05/20 18:31:19;;;;;;;35.20;6.63;;;14.70;99.90;;;;;;6123661;23;20030;-89
2021/05/20 18:33:46;;;;;;;36.60;6.32;;;14.70;99.90;;;;;;6123439;23;20085;-89
2021/05/20 18:36:16;;;;;;;26.63;5.40;;;14.60;99.90;;;;;;6123217;23;20014;-91
2021/05/20 18:38:43;;;;;;;39.97;6.45;;;14.50;99.90;;;;;;6126364;23;20018;-90
2021/05/20 18:41:16;;;;;;;37.28;6.50;;;14.40;99.90;;;;;;6123314;23;20014;-88
2021/05/20 18:43:44;;;;;;;39.65;6.82;;;14.40;99.90;;;;;;6126826;23;20073;-88
2021/05/20 18:46:11;;;;;;;27.92;5.45;;;14.30;99.90;;;;;;6122868;23;20022;-90
2021/05/20 18:48:38;;;;;;;31.67;6.65;;;14.20;99.90;;;;;;6124977;23;20014;-92
2021/05/20 18:51:05;;;;;;;39.53;7.30;;;14.10;99.90;;;;;;6119525;23;20022;-89
2021/05/20 18:53:32;;;;;;;31.98;5.97;;;14.00;99.90;;;;;;6123713;23;20013;-89
2021/05/20 18:56:02;;;;;;;35.95;6.55;;;14.00;99.90;;;;;;6122671;23;20021;-89
2021/05/20 18:58:31;;;;;;;35.95;6.03;;;13.90;99.90;;;;;;6121913;23;20022;-90
2021/05/20 19:00:57;;;;;;;;;;;13.80;99.90;;;;;;6123119;23;20526;-93
2021/05/20 19:03:25;;;;;;;36.38;6.20;;;13.70;99.90;;;;;;6146351;23;20638;-88
2021/05/20 19:06:22;;;;;;;31.52;6.28;;;13.70;99.90;;;;;;6122717;23;20020;-91
2021/05/20 19:08:49;;;;;;;27.38;5.38;;;13.60;99.90;;;;;;6122322;23;20013;-92
2021/05/20 19:11:16;;;;;;;40.80;6.38;;;13.50;99.90;;;;;;6121827;23;20552;-92
2021/05/20 19:13:43;;;;;;;46.00;7.88;;;13.50;99.90;;;;;;6123441;23;20017;-92
2021/05/20 19:16:13;;;;;;;35.67;6.47;;;13.50;99.90;;;;;;6122476;23;20026;-90
2021/05/20 19:18:57;;;;;;;44.00;6.80;;;13.50;99.90;;;;;;6122249;23;20073;-88
2021/05/20 19:21:25;;;;;;;42.08;6.40;;;13.40;99.90;;;;;;6121018;23;20045;-89
2021/05/20 19:23:53;;;;;;;42.13;6.18;;;13.30;99.90;;;;;;6118344;23;20010;-89
2021/05/20 19:26:22;;;;;;;28.88;5.35;;;13.30;99.90;;;;;;6118508;23;20025;-90
2021/05/20 19:28:58;;;;;;;;;;;13.20;99.90;;;;;;6121958;23;20018;-91
2021/05/20 19:31:28;;;;;;;41.25;6.65;;;13.20;99.90;;;;;;6142913;23;19916;-93
2021/05/20 19:33:56;;;;;;;30.90;5.60;;;13.20;99.90;;;;;;6119831;23;20240;-92
2021/05/20 19:36:23;;;;;;;38.65;6.50;;;13.10;99.90;;;;;;6118531;23;20033;-92
2021/05/20 19:38:50;;;;;;;34.78;6.00;;;13.10;99.90;;;;;;6118765;23;20028;-92
2021/05/20 19:41:17;;;;;;;39.25;7.30;;;13.00;99.90;;;;;;6117749;23;20040;-91
2021/05/20 19:43:44;;;;;;;41.28;6.90;;;13.00;99.90;;;;;;6119191;23;20022;-91
2021/05/20 19:46:11;;;;;;;39.65;7.53;;;13.00;99.90;;;;;;6118973;23;20454;-90
2021/05/20 19:48:38;;;;;;;30.02;5.63;;;13.00;99.90;;;;;;6120065;23;20401;-90
2021/05/20 19:51:07;;;;;;;45.67;6.18;;;13.00;99.90;;;;;;6118277;23;20461;-89
2021/05/20 19:53:44;;;;;;;30.05;6.07;;;13.00;99.90;;;;;;6117459;23;20262;-92
2021/05/20 20:01:29;;;;;;;31.10;4.65;;;12.70;99.90;;;;;;6119584;23;20049;-92
2021/05/20 20:03:58;;;;;;;39.40;6.07;;;12.70;99.90;;;;;;6118773;23;20032;-90
2021/05/20 20:09:29;;;;;;;38.50;6.20;;;12.70;99.90;;;;;;6121694;23;20101;-92
2021/05/20 20:11:56;;;;;;;44.92;6.85;;;12.70;99.90;;;;;;6120148;23;20021;-91
2021/05/20 20:14:23;;;;;;;45.17;6.65;;;12.60;99.90;;;;;;6120092;23;20470;-91
2021/05/20 20:16:53;;;;;;;35.53;5.70;;;12.60;99.90;;;;;;6114813;23;20026;-89
2021/05/20 20:19:27;;;;;;;41.22;6.68;;;12.50;99.90;;;;;;6119532;23;20124;-91
2021/05/20 20:21:59;;;;;;;35.60;6.53;;;12.50;99.90;;;;;;6124324;23;20026;-90
2021/05/20 20:24:41;;;;;;;28.55;5.80;;;12.50;99.90;;;;;;6122607;23;20018;-92
2021/05/20 20:29:54;;;;;;;42.78;6.03;;;12.40;99.90;;;;;;6125527;23;20022;-89
2021/05/20 20:32:23;;;;;;;37.13;5.70;;;12.30;99.90;;;;;;6124225;23;20025;-90
2021/05/20 20:42:50;;;;;;;44.53;7.13;;;12.20;99.90;;;;;;6126197;23;20038;-93
2021/05/20 20:45:17;;;;;;;36.22;6.28;;;12.20;99.90;;;;;;6126157;23;20025;-92
2021/05/20 20:47:44;;;;;;;36.67;6.18;;;12.20;99.90;;;;;;6124530;23;20017;-90
2021/05/20 20:50:14;;;;;;;46.97;7.63;;;12.20;99.90;;;;;;6126065;23;20453;-92
2021/05/20 20:52:41;;;;;;;45.75;6.65;;;12.20;99.90;;;;;;6125507;23;20049;-89
2021/05/20 20:55:09;;;;;;;44.15;6.97;;;12.20;99.90;;;;;;6124953;23;20069;-91
2021/05/20 20:57:36;;;;;;;42.50;6.47;;;12.20;99.90;;;;;;6125676;23;20386;-90
2021/05/20 21:00:05;;;;;;;49.17;7.50;;;12.20;99.90;;;;;;6125221;23;20390;-94
2021/05/20 21:02:34;;;;;;;40.65;6.90;;;12.20;99.90;;;;;;6149397;23;20018;-90
2021/05/20 21:05:18;;;;;;;37.22;5.88;;;12.20;99.90;;;;;;6124937;23;20026;-92
2021/05/20 21:07:45;;;;;;;43.22;6.28;;;12.20;99.90;;;;;;6128352;23;20021;-90
2021/05/20 21:10:16;;;;;;;43.72;7.93;;;12.20;99.90;;;;;;6124731;23;20014;-91
2021/05/20 21:12:43;;;;;;;42.13;6.55;;;12.20;99.90;;;;;;6126539;23;20025;-90
2021/05/20 21:15:10;;;;;;;44.72;7.57;;;12.20;99.90;;;;;;6124425;23;20532;-93
2021/05/20 21:17:37;;;;;;;37.58;6.63;;;12.10;99.90;;;;;;6126050;23;20018;-91
2021/05/20 21:20:05;;;;;;;38.40;7.18;;;12.10;99.90;;;;;;6126838;23;20061;-92
2021/05/20 21:22:36;;;;;;;34.97;6.03;;;12.10;99.90;;;;;;6149757;23;20017;-90
2021/05/20 21:25:04;;;;;;;40.03;6.85;;;12.10;99.90;;;;;;6125404;23;20065;-93
2021/05/20 21:27:34;;;;;;;36.25;6.78;;;12.10;99.90;;;;;;6124527;23;20022;-93
2021/05/20 21:30:03;;;;;;;45.17;6.85;;;12.10;99.90;;;;;;6125104;23;20025;-91
2021/05/20 21:32:30;;;;;;;40.67;6.07;;;12.10;99.90;;;;;;6124399;23;20025;-89
2021/05/20 21:34:57;;;;;;;39.83;7.53;;;12.20;99.90;;;;;;6125104;23;21461;-91
2021/05/20 21:37:24;;;;;;;42.88;6.32;;;12.20;99.90;;;;;;6124837;23;20030;-91
2021/05/20 21:39:51;;;;;;;44.45;6.93;;;12.20;99.90;;;;;;6124191;23;20014;-91
2021/05/20 21:42:18;;;;;;;44.65;6.82;;;12.20;99.90;;;;;;6124704;23;20022;-89